Time;durP1;ratioP1;P1;durP2;ratioP2;P2;SDS_P1;SDS_P2;PMS_P1;PMS_P2;Temp;Humidity;BMP_temperature;BMP_pressure;BME280_temperature;BME280_humidity;BME280_pressure;Samples;Min_cycle;Max_cycle;Signal;HPM_P1;HPM_P2
2023/10/19 00:01:27;;;;;;;;;;;;;;;12.32;48.07;99522.78;4983866;27;98351;-64
2023/10/19 00:03:55;;;;;;;;;;;;;;;12.32;48.06;99517.38;4987302;27;102400;-70
2023/10/19 00:06:23;;;;;;;;;;;;;;;12.31;48.02;99513.06;4978677;27;97957;-70
2023/10/19 00:08:52;;;;;;;;;;;;;;;12.30;47.96;99514.97;4986065;27;99011;-70
2023/10/19 00:11:27;;;;;;;;;;;;;;;12.29;48.09;99502.56;4981127;27;98658;-71
2023/10/19 00:13:57;;;;;;;;;;;;;;;12.29;48.15;99505.25;4984353;27;98033;-64
2023/10/19 00:16:29;;;;;;;;;;;;;;;12.28;47.92;99501.75;4986472;27;99986;-65
2023/10/19 00:18:59;;;;;;;;;;;;;;;12.27;48.05;99494.75;4971484;27;99650;-71
2023/10/19 00:21:25;;;;;;;;;;;;;;;12.27;47.95;99483.16;4969131;27;98081;-72
2023/10/19 00:24:04;;;;;;;;;;;;;;;12.27;47.89;99472.34;4968876;27;98037;-65
2023/10/19 00:26:31;;;;;;;;;;;;;;;12.26;48.03;99474.25;5003346;27;99656;-71
2023/10/19 00:28:57;;;;;;;;;;;;;;;12.27;47.90;99477.75;4996583;27;98206;-64
2023/10/19 00:31:26;;;;;;;;;;;;;;;12.26;47.90;99470.72;4985894;27;98037;-64
2023/10/19 00:33:52;;;;;;;;;;;;;;;12.25;48.06;99471.84;4985007;27;98113;-70
2023/10/19 00:36:20;;;;;;;;;;;;;;;12.24;47.99;99462.94;5014876;27;100019;-65
2023/10/19 00:41:29;;;;;;;;;;;;;;;12.24;47.92;99451.31;4983602;27;98690;-71
2023/10/19 00:44:16;;;;;;;;;;;;;;;12.21;47.92;99444.63;4985021;27;99002;-71
2023/10/19 00:46:43;;;;;;;;;;;;;;;12.20;47.80;99439.53;4988118;27;98787;-64
2023/10/19 00:49:14;;;;;;;;;;;;;;;12.17;47.88;99438.22;4981291;27;102754;-64
2023/10/19 00:52:11;;;;;;;;;;;;;;;12.16;47.97;99443.94;5001927;27;98770;-64
2023/10/19 00:57:12;;;;;;;;;;;;;;;12.11;47.97;99439.44;5002499;27;98381;-71
2023/10/19 00:59:49;;;;;;;;;;;;;;;12.10;48.04;99439.72;4981973;27;106882;-64
2023/10/19 01:04:56;;;;;;;;;;;;;;;12.08;47.99;99445.44;5002592;27;98714;-64
2023/10/19 01:09:53;;;;;;;;;;;;;;;12.07;47.96;99441.16;5011887;27;98117;-70
2023/10/19 01:12:25;;;;;;;;;;;;;;;12.07;47.95;99434.94;5000673;27;97811;-71
2023/10/19 01:15:18;;;;;;;;;;;;;;;12.06;48.18;99428.72;4971892;27;98315;-71
2023/10/19 01:17:46;;;;;;;;;;;;;;;12.05;47.76;99429.84;4982930;27;99446;-64
2023/10/19 01:31:06;;;;;;;;;;;;;;;12.04;48.01;99395.84;4984349;27;98756;-71
2023/10/19 01:33:36;;;;;;;;;;;;;;;12.03;47.96;99400.44;4970071;27;98279;-65
2023/10/19 01:36:12;;;;;;;;;;;;;;;12.03;48.13;99403.13;4968561;27;98493;-64
2023/10/19 01:38:39;;;;;;;;;;;;;;;12.04;47.85;99395.84;4989029;27;98700;-64
2023/10/19 01:41:13;;;;;;;;;;;;;;;12.03;48.01;99384.22;4986466;27;100625;-64
2023/10/19 01:43:40;;;;;;;;;;;;;;;12.04;48.06;99379.63;4989212;27;98109;-64
2023/10/19 01:46:12;;;;;;;;;;;;;;;12.03;47.95;99372.63;5001322;27;98554;-72
2023/10/19 01:48:40;;;;;;;;;;;;;;;12.02;47.86;99362.91;4970872;27;98227;-71
2023/10/19 01:51:10;;;;;;;;;;;;;;;12.03;47.85;99372.63;5007879;27;97954;-71
2023/10/19 01:53:39;;;;;;;;;;;;;;;12.02;48.08;99365.59;4974006;27;98826;-71
2023/10/19 01:56:09;;;;;;;;;;;;;;;12.03;48.13;99367.22;4972628;27;98971;-64
2023/10/19 01:58:39;;;;;;;;;;;;;;;12.03;47.93;99362.63;4990643;27;98797;-70
2023/10/19 02:03:42;;;;;;;;;;;;;;;12.03;48.00;99351.03;4990312;27;99128;-70
2023/10/19 02:06:19;;;;;;;;;;;;;;;12.03;47.95;99349.13;5014611;27;98622;-70
2023/10/19 02:08:56;;;;;;;;;;;;;;;12.02;48.09;99347.53;4990404;27;98614;-70
2023/10/19 02:11:23;;;;;;;;;;;;;;;12.02;47.98;99344.84;4970178;27;98828;-65
2023/10/19 02:13:51;;;;;;;;;;;;;;;12.03;47.69;99340.22;4999894;27;98486;-64
2023/10/19 02:16:21;;;;;;;;;;;;;;;12.02;47.89;99334.03;5004737;27;98038;-70
2023/10/19 02:18:48;;;;;;;;;;;;;;;12.02;47.88;99325.91;4985176;27;100120;-70
2023/10/19 02:21:14;;;;;;;;;;;;;;;12.03;47.93;99329.41;4998811;27;98720;-71
2023/10/19 02:23:44;;;;;;;;;;;;;;;12.02;47.75;99327.81;5000319;27;98025;-64
2023/10/19 02:26:16;;;;;;;;;;;;;;;12.03;47.85;99318.63;4983305;27;98475;-70
2023/10/19 02:28:44;;;;;;;;;;;;;;;12.04;47.99;99314.81;4987516;27;98425;-64
2023/10/19 02:31:31;;;;;;;;;;;;;;;12.03;48.00;99310.50;4971715;27;98401;-64
2023/10/19 02:33:59;;;;;;;;;;;;;;;12.03;47.95;99303.22;4971120;27;98008;-70
2023/10/19 02:36:30;;;;;;;;;;;;;;;12.04;48.16;99299.41;5005213;27;98126;-71
2023/10/19 02:39:08;;;;;;;;;;;;;;;12.04;47.93;99304.78;5006276;27;99325;-64
2023/10/19 02:41:41;;;;;;;;;;;;;;;12.03;48.08;99292.41;5018803;27;98165;-70
2023/10/19 02:46:48;;;;;;;;;;;;;;;12.04;48.05;99282.41;5001259;27;99168;-70
2023/10/19 02:49:18;;;;;;;;;;;;;;;12.06;47.92;99273.97;4987693;27;98321;-64
2023/10/19 02:51:45;;;;;;;;;;;;;;;12.04;48.04;99258.88;4985437;27;98417;-64
2023/10/19 02:54:22;;;;;;;;;;;;;;;12.06;48.01;99260.47;4968508;27;101842;-71
2023/10/19 02:56:53;;;;;;;;;;;;;;;12.05;47.95;99251.56;4980078;27;97898;-71
2023/10/19 02:59:22;;;;;;;;;;;;;;;12.05;48.00;99251.56;5002776;27;99625;-71
2023/10/19 03:01:52;;;;;;;;;;;;;;;12.04;47.97;99239.97;4985230;27;101672;-71
2023/10/19 03:04:18;;;;;;;;;;;;;;;12.05;47.95;99238.06;4967640;27;99333;-64
2023/10/19 03:06:45;;;;;;;;;;;;;;;12.05;48.07;99229.97;5005186;27;98280;-64
2023/10/19 03:09:15;;;;;;;;;;;;;;;12.05;47.97;99229.97;4982893;27;99459;-64
2023/10/19 03:11:42;;;;;;;;;;;;;;;12.05;48.00;99232.66;5000129;27;98662;-70
2023/10/19 03:14:11;;;;;;;;;;;;;;;12.06;48.04;99228.84;4973209;27;99286;-64
2023/10/19 03:16:38;;;;;;;;;;;;;;;12.06;48.07;99228.84;4986258;27;98431;-64
2023/10/19 03:19:04;;;;;;;;;;;;;;;12.07;48.04;99229.69;4981861;27;98554;-70
2023/10/19 03:21:41;;;;;;;;;;;;;;;12.07;48.01;99226.97;4984578;27;109160;-70
2023/10/19 03:24:23;;;;;;;;;;;;;;;12.07;48.07;99210.78;5000899;27;98840;-70
2023/10/19 03:26:50;;;;;;;;;;;;;;;12.07;47.96;99208.06;5004500;27;97916;-64
2023/10/19 03:29:25;;;;;;;;;;;;;;;12.07;48.01;99202.66;4998217;27;98277;-71
2023/10/19 03:31:52;;;;;;;;;;;;;;;12.04;48.05;99196.75;4986679;27;100136;-71
2023/10/19 03:34:18;;;;;;;;;;;;;;;12.07;48.02;99198.06;5000072;27;99297;-70
2023/10/19 03:36:44;;;;;;;;;;;;;;;12.08;48.04;99190.75;5001132;27;118196;-71
2023/10/19 03:39:11;;;;;;;;;;;;;;;12.08;47.69;99182.66;4969585;27;112815;-64
2023/10/19 03:41:39;;;;;;;;;;;;;;;12.12;47.99;99181.72;5000397;27;100091;-71
2023/10/19 03:44:05;;;;;;;;;;;;;;;12.19;48.15;99186.69;4985406;27;99053;-71
2023/10/19 03:46:35;;;;;;;;;;;;;;;12.26;48.08;99174.34;4998473;27;109156;-65
2023/10/19 03:49:10;;;;;;;;;;;;;;;12.33;48.05;99175.78;5003495;27;98408;-71
2023/10/19 03:51:40;;;;;;;;;;;;;;;12.39;48.03;99169.16;4984371;27;98459;-64
2023/10/19 03:54:28;;;;;;;;;;;;;;;12.42;48.09;99174.75;4987438;27;98125;-65
2023/10/19 03:56:56;;;;;;;;;;;;;;;12.48;47.98;99175.41;4988517;27;97773;-65
2023/10/19 03:59:23;;;;;;;;;;;;;;;12.51;48.03;99174.78;4986833;27;98120;-71
2023/10/19 04:01:49;;;;;;;;;;;;;;;12.53;48.13;99161.75;5000467;27;98817;-65
2023/10/19 04:04:16;;;;;;;;;;;;;;;12.55;48.02;99164.94;4985138;27;98919;-71
2023/10/19 04:06:49;;;;;;;;;;;;;;;12.56;48.07;99163.84;4990032;27;99170;-65
2023/10/19 04:09:17;;;;;;;;;;;;;;;12.57;48.12;99162.72;4980795;27;103279;-71
2023/10/19 04:11:49;;;;;;;;;;;;;;;12.59;48.12;99167.81;4965715;27;98516;-64
2023/10/19 04:14:16;;;;;;;;;;;;;;;12.59;48.03;99165.91;4988178;27;98449;-71
2023/10/19 04:16:48;;;;;;;;;;;;;;;12.60;48.01;99169.41;4980391;27;98160;-71
2023/10/19 04:19:15;;;;;;;;;;;;;;;12.60;48.26;99164.00;4986657;27;97928;-64
2023/10/19 04:21:46;;;;;;;;;;;;;;;12.60;48.10;99164.81;5002172;27;100015;-64
2023/10/19 04:24:13;;;;;;;;;;;;;;;12.59;48.24;99157.81;4973514;27;99360;-64
2023/10/19 04:26:39;;;;;;;;;;;;;;;12.61;48.12;99157.47;4997353;27;99981;-71
2023/10/19 04:29:16;;;;;;;;;;;;;;;12.59;48.13;99160.50;4951323;28;98922;-64
2023/10/19 04:31:54;;;;;;;;;;;;;;;12.59;48.02;99160.50;4943321;28;98964;-72
2023/10/19 04:34:21;;;;;;;;;;;;;;;12.59;48.13;99157.81;4934400;28;98909;-64
2023/10/19 04:36:52;;;;;;;;;;;;;;;12.59;48.26;99157.81;4946451;28;100399;-65
2023/10/19 04:39:19;;;;;;;;;;;;;;;12.59;48.25;99152.41;4956490;28;99259;-72
2023/10/19 04:41:48;;;;;;;;;;;;;;;12.58;48.27;99156.22;4974052;28;99026;-66
2023/10/19 04:44:15;;;;;;;;;;;;;;;12.57;48.29;99154.59;4958977;28;98659;-64
2023/10/19 04:46:41;;;;;;;;;;;;;;;12.57;48.05;99153.81;4955088;28;98162;-65
2023/10/19 04:49:08;;;;;;;;;;;;;;;12.56;48.08;99136.00;4963440;28;100654;-64
2023/10/19 04:51:38;;;;;;;;;;;;;;;12.55;48.12;99135.22;4950390;28;99895;-72
2023/10/19 04:54:05;;;;;;;;;;;;;;;12.56;48.24;99133.31;4962923;28;98314;-72
2023/10/19 04:56:32;;;;;;;;;;;;;;;12.54;48.21;99139.03;4960867;28;98319;-64
2023/10/19 04:58:58;;;;;;;;;;;;;;;12.54;48.15;99136.34;4966111;28;99138;-72
2023/10/19 05:01:24;;;;;;;;;;;;;;;12.52;48.30;99135.84;4947599;28;119559;-64
2023/10/19 05:03:50;;;;;;;;;;;;;;;12.50;48.12;99138.84;4945566;28;101108;-72
2023/10/19 05:06:16;;;;;;;;;;;;;;;12.50;48.25;99143.47;4974197;28;117247;-64
2023/10/19 05:08:42;;;;;;;;;;;;;;;12.50;48.21;99141.56;4961700;28;98088;-72
2023/10/19 05:11:08;;;;;;;;;;;;;;;12.49;48.13;99148.06;4976937;28;99525;-72
2023/10/19 05:13:35;;;;;;;;;;;;;;;12.49;48.21;99142.66;4945738;28;99181;-72
2023/10/19 05:16:03;;;;;;;;;;;;;;;12.48;48.21;99151.06;4962223;27;98309;-64
2023/10/19 05:18:29;;;;;;;;;;;;;;;12.48;48.20;99151.88;4962890;27;100181;-65
2023/10/19 05:20:56;;;;;;;;;;;;;;;12.47;48.10;99160.31;4965981;27;98677;-64
2023/10/19 05:23:25;;;;;;;;;;;;;;;12.47;48.33;99149.50;4927508;28;98973;-71
2023/10/19 05:25:53;;;;;;;;;;;;;;;12.47;48.22;99144.09;4963469;27;98133;-72
2023/10/19 05:28:19;;;;;;;;;;;;;;;12.44;48.14;99140.09;4956890;27;97975;-72
2023/10/19 05:30:46;;;;;;;;;;;;;;;12.45;48.16;99136.28;4977155;27;104793;-65
2023/10/19 05:33:12;;;;;;;;;;;;;;;12.46;48.14;99132.47;4978368;27;97961;-65
2023/10/19 05:35:40;;;;;;;;;;;;;;;12.46;48.29;99129.00;4946695;27;98237;-73
2023/10/19 05:38:07;;;;;;;;;;;;;;;12.44;48.24;99125.78;4966275;27;97911;-73
2023/10/19 05:40:33;;;;;;;;;;;;;;;12.44;48.25;99123.09;4952733;27;97956;-65
2023/10/19 05:43:01;;;;;;;;;;;;;;;12.44;48.20;99128.50;4969693;27;98234;-73
2023/10/19 05:45:28;;;;;;;;;;;;;;;12.43;48.31;99116.09;4953162;28;98158;-66
2023/10/19 05:47:57;;;;;;;;;;;;;;;12.44;48.33;99109.56;4964477;27;97960;-65
2023/10/19 05:50:23;;;;;;;;;;;;;;;12.43;48.08;99102.59;4962679;28;99714;-73
2023/10/19 05:52:51;;;;;;;;;;;;;;;12.44;48.14;99098.75;4962282;28;98269;-72
2023/10/19 05:55:21;;;;;;;;;;;;;;;12.44;48.31;99094.16;4956521;28;98516;-65
2023/10/19 05:57:47;;;;;;;;;;;;;;;12.45;48.09;99100.34;4938920;27;100010;-72
2023/10/19 06:00:13;;;;;;;;;;;;;;;12.45;48.15;99106.53;4961876;27;98614;-72
2023/10/19 06:02:49;;;;;;;;;;;;;;;12.44;48.21;99102.25;4931417;27;99173;-72
2023/10/19 06:05:16;;;;;;;;;;;;;;;12.45;48.17;99098.44;4947354;27;98382;-65
2023/10/19 06:07:43;;;;;;;;;;;;;;;12.46;48.23;99101.97;4962577;27;98252;-72
2023/10/19 06:10:15;;;;;;;;;;;;;;;12.45;48.17;99101.13;4958080;27;98422;-72
2023/10/19 06:12:42;;;;;;;;;;;;;;;12.46;48.19;99104.66;4950481;27;98711;-65
2023/10/19 06:15:10;;;;;;;;;;;;;;;12.47;48.07;99100.84;4955663;27;98226;-65
2023/10/19 06:17:40;;;;;;;;;;;;;;;12.46;48.37;99108.16;4946952;28;98464;-65
2023/10/19 06:20:19;;;;;;;;;;;;;;;12.49;48.36;99106.72;4982982;27;98672;-65
2023/10/19 06:22:50;;;;;;;;;;;;;;;12.48;48.25;99102.44;4951356;28;98121;-65
2023/10/19 06:25:21;;;;;;;;;;;;;;;12.48;48.26;99105.13;4952782;27;98053;-72
2023/10/19 06:27:46;;;;;;;;;;;;;;;12.49;48.13;99109.41;4981822;27;99133;-72
2023/10/19 06:30:17;;;;;;;;;;;;;;;12.48;48.26;99110.53;4949123;27;98398;-65
2023/10/19 06:32:48;;;;;;;;;;;;;;;12.49;48.32;99107.50;4967793;27;98421;-72
2023/10/19 06:35:14;;;;;;;;;;;;;;;12.49;48.18;99107.50;4962178;27;99634;-65
2023/10/19 06:37:40;;;;;;;;;;;;;;;12.50;48.26;99101.03;4963292;27;98928;-66
2023/10/19 06:40:07;;;;;;;;;;;;;;;12.51;48.24;99109.91;4967494;27;98068;-73
2023/10/19 06:42:35;;;;;;;;;;;;;;;12.53;48.23;99108.47;4952295;27;99938;-65
2023/10/19 06:45:01;;;;;;;;;;;;;;;12.55;48.21;99110.09;4978800;27;97918;-65
2023/10/19 06:47:28;;;;;;;;;;;;;;;12.57;48.10;99108.66;4967499;27;98616;-65
2023/10/19 06:49:55;;;;;;;;;;;;;;;12.60;48.17;99101.84;4966547;27;98210;-72
2023/10/19 06:52:21;;;;;;;;;;;;;;;12.62;48.16;99096.94;4953716;27;98016;-72
2023/10/19 06:54:48;;;;;;;;;;;;;;;12.64;48.22;99097.41;4951753;27;98176;-73
2023/10/19 06:57:13;;;;;;;;;;;;;;;12.66;48.03;99098.69;4950869;27;98296;-72
2023/10/19 06:59:40;;;;;;;;;;;;;;;12.68;48.23;99106.47;4934069;27;98232;-66
2023/10/19 07:02:07;;;;;;;;;;;;;;;12.68;48.08;99096.44;4953746;27;98148;-72
2023/10/19 07:04:36;;;;;;;;;;;;;;;12.69;48.25;99097.25;4936863;27;98410;-65
2023/10/19 07:07:04;;;;;;;;;;;;;;;12.69;48.13;99095.34;4929149;27;98508;-65
2023/10/19 07:09:34;;;;;;;;;;;;;;;12.69;48.01;99089.13;4950985;27;98447;-65
2023/10/19 07:12:01;;;;;;;;;;;;;;;12.68;48.22;99084.84;4968168;27;98342;-65
2023/10/19 07:14:27;;;;;;;;;;;;;;;12.67;48.17;99083.25;4949254;27;98080;-72
2023/10/19 07:16:53;;;;;;;;;;;;;;;12.64;48.13;99084.66;4951151;27;98774;-72
2023/10/19 07:19:21;;;;;;;;;;;;;;;12.62;48.18;99080.72;4959108;28;103036;-65
2023/10/19 07:21:49;;;;;;;;;;;;;;;12.60;48.36;99080.22;4945026;27;97937;-65
2023/10/19 07:24:18;;;;;;;;;;;;;;;12.57;48.33;99084.31;4956710;28;98352;-72
2023/10/19 07:27:04;;;;;;;;;;;;;;;12.56;48.30;99071.13;4950033;28;101217;-65
2023/10/19 07:29:32;;;;;;;;;;;;;;;12.52;48.35;99065.56;4962299;27;98335;-73
2023/10/19 07:32:00;;;;;;;;;;;;;;;12.51;48.40;99058.56;4957449;28;98266;-65
2023/10/19 07:34:31;;;;;;;;;;;;;;;12.49;48.26;99055.38;4939162;28;98903;-65
2023/10/19 07:36:59;;;;;;;;;;;;;;;12.46;48.19;99059.50;4948141;28;98107;-72
2023/10/19 07:39:29;;;;;;;;;;;;;;;12.47;48.26;99060.31;4948337;28;98193;-73
2023/10/19 07:41:58;;;;;;;;;;;;;;;12.44;48.22;99059.00;4966854;27;98741;-72
2023/10/19 07:44:24;;;;;;;;;;;;;;;12.45;48.36;99062.50;4960776;27;98126;-72
2023/10/19 07:46:53;;;;;;;;;;;;;;;12.42;48.37;99057.75;4962452;27;98940;-66
2023/10/19 07:49:21;;;;;;;;;;;;;;;12.41;48.39;99064.25;4966764;27;98722;-72
2023/10/19 07:51:51;;;;;;;;;;;;;;;12.39;48.21;99066.47;4959406;27;98905;-64
2023/10/19 07:54:18;;;;;;;;;;;;;;;12.39;48.33;99069.19;4947124;27;99942;-64
2023/10/19 07:56:46;;;;;;;;;;;;;;;12.37;48.36;99064.06;4983747;27;98814;-65
2023/10/19 07:59:14;;;;;;;;;;;;;;;12.36;48.36;99065.19;4962473;27;99504;-65
2023/10/19 08:01:41;;;;;;;;;;;;;;;12.39;48.48;99067.28;4955757;27;100712;-65
2023/10/19 08:04:08;;;;;;;;;;;;;;;12.39;48.41;99066.47;4953824;27;98243;-65
2023/10/19 08:06:35;;;;;;;;;;;;;;;12.40;48.32;99070.78;4976870;27;98285;-65
2023/10/19 08:09:04;;;;;;;;;;;;;;;12.40;48.30;99060.75;4982667;27;98439;-73
2023/10/19 08:11:31;;;;;;;;;;;;;;;12.43;48.30;99062.03;4967238;27;98597;-73
2023/10/19 08:13:57;;;;;;;;;;;;;;;12.45;48.35;99062.50;4947599;28;98375;-65
2023/10/19 08:16:27;;;;;;;;;;;;;;;12.45;48.29;99060.59;4943858;28;99276;-65
2023/10/19 08:18:54;;;;;;;;;;;;;;;12.48;48.38;99064.59;4961064;28;99745;-72
2023/10/19 08:21:23;;;;;;;;;;;;;;;12.52;48.29;99060.16;4946955;28;99332;-65
2023/10/19 08:23:49;;;;;;;;;;;;;;;12.53;48.23;99059.81;4959305;28;98414;-73
2023/10/19 08:26:16;;;;;;;;;;;;;;;12.58;48.19;99042.69;4964638;28;107272;-66
2023/10/19 08:28:43;;;;;;;;;;;;;;;12.64;48.30;99048.72;4944685;28;98067;-65
2023/10/19 08:31:10;;;;;;;;;;;;;;;12.68;48.06;99038.88;4960581;28;98803;-73
2023/10/19 08:33:38;;;;;;;;;;;;;;;12.74;48.13;99037.63;4961917;28;98245;-73
2023/10/19 08:36:05;;;;;;;;;;;;;;;12.77;47.92;99028.88;4960029;28;98888;-73
2023/10/19 08:38:34;;;;;;;;;;;;;;;12.83;48.18;99032.22;4956745;28;98468;-65
2023/10/19 08:41:01;;;;;;;;;;;;;;;12.87;47.78;99023.16;4929955;28;97974;-72
2023/10/19 08:43:28;;;;;;;;;;;;;;;12.93;48.19;99021.09;4967412;28;98629;-62
2023/10/19 08:45:55;;;;;;;;;;;;;;;12.95;47.82;99008.84;4961532;28;98056;-69
2023/10/19 08:48:22;;;;;;;;;;;;;;;12.96;48.12;99004.22;4943603;28;98321;-64
2023/10/19 08:50:49;;;;;;;;;;;;;;;12.98;48.01;99012.84;4959096;28;97870;-65
2023/10/19 08:53:17;;;;;;;;;;;;;;;13.03;47.83;99002.66;4942312;28;98287;-71
2023/10/19 08:55:45;;;;;;;;;;;;;;;13.14;48.17;99003.13;4960653;28;99622;-64
2023/10/19 08:58:12;;;;;;;;;;;;;;;13.24;47.72;99005.56;4934494;28;100382;-65
2023/10/19 09:00:46;;;;;;;;;;;;;;;13.25;47.79;99006.34;4956041;28;99768;-71
2023/10/19 09:03:13;;;;;;;;;;;;;;;13.23;48.02;99009.34;4966237;28;98226;-71
2023/10/19 09:05:41;;;;;;;;;;;;;;;13.22;48.16;99010.44;4960539;28;99147;-64
2023/10/19 09:08:09;;;;;;;;;;;;;;;13.20;47.85;99011.88;4938162;28;98081;-71
2023/10/19 09:10:36;;;;;;;;;;;;;;;13.17;48.19;99005.19;4960984;28;98468;-71
2023/10/19 09:13:04;;;;;;;;;;;;;;;13.14;48.04;99002.34;4957344;28;98410;-71
2023/10/19 09:15:32;;;;;;;;;;;;;;;13.12;48.17;98997.22;4958775;28;98626;-71
2023/10/19 09:17:59;;;;;;;;;;;;;;;13.13;48.23;98995.34;4959041;28;98571;-71
2023/10/19 09:20:28;;;;;;;;;;;;;;;13.14;48.26;98994.22;4925163;28;99399;-71
2023/10/19 09:23:02;;;;;;;;;;;;;;;13.16;48.09;98981.16;4947480;28;97840;-71
2023/10/19 09:25:29;;;;;;;;;;;;;;;13.18;48.06;98982.44;4947185;28;98214;-71
2023/10/19 09:27:55;;;;;;;;;;;;;;;13.17;48.32;98980.06;4942821;28;98470;-71
2023/10/19 09:30:22;;;;;;;;;;;;;;;13.14;47.97;98986.09;4944120;28;98088;-65
2023/10/19 09:32:49;;;;;;;;;;;;;;;13.11;48.12;98975.91;4946362;28;98238;-64
2023/10/19 09:35:16;;;;;;;;;;;;;;;13.11;48.40;98962.38;4928407;28;98064;-72
2023/10/19 09:37:43;;;;;;;;;;;;;;;13.12;48.10;98969.38;4959679;28;98097;-71
2023/10/19 09:40:13;;;;;;;;;;;;;;;13.12;48.25;98959.34;4946384;28;98240;-71
2023/10/19 09:42:52;;;;;;;;;;;;;;;13.20;48.36;98964.00;4963719;28;103024;-71
2023/10/19 09:45:19;;;;;;;;;;;;;;;13.23;48.09;98966.06;4925633;28;98422;-71
2023/10/19 09:47:51;;;;;;;;;;;;;;;13.25;48.40;98965.75;4943241;28;100092;-71
2023/10/19 09:50:19;;;;;;;;;;;;;;;13.29;48.01;98960.50;4961358;28;99665;-71
2023/10/19 09:52:45;;;;;;;;;;;;;;;13.36;48.06;98958.06;4959745;28;98074;-71
2023/10/19 09:55:25;;;;;;;;;;;;;;;13.41;48.11;98957.94;4960729;28;125557;-64
2023/10/19 09:58:14;;;;;;;;;;;;;;;13.44;47.83;98952.66;4948101;28;98218;-64
2023/10/19 10:00:49;;;;;;;;;;;;;;;13.44;47.89;98949.97;4964842;28;98036;-71
2023/10/19 10:03:53;;;;;;;;;;;;;;;13.48;48.23;98945.50;4934409;28;98699;-68
2023/10/19 10:06:59;;;;;;;;;;;;;;;13.53;48.17;98930.97;4961787;28;99651;-65
2023/10/19 10:09:29;;;;;;;;;;;;;;;13.60;47.68;98931.28;4942109;28;99988;-71
2023/10/19 10:11:56;;;;;;;;;;;;;;;13.64;48.09;98923.31;4949309;28;99315;-70
2023/10/19 10:14:24;;;;;;;;;;;;;;;13.64;48.14;98928.72;4963328;28;98723;-71
2023/10/19 10:17:05;;;;;;;;;;;;;;;13.65;47.89;98928.38;4950290;28;99347;-64
2023/10/19 10:19:34;;;;;;;;;;;;;;;13.67;47.92;98928.06;4964920;28;99388;-64
2023/10/19 10:22:11;;;;;;;;;;;;;;;13.66;47.88;98921.84;4965787;28;97959;-71
2023/10/19 10:24:43;;;;;;;;;;;;;;;13.64;48.24;98915.97;4934097;28;99693;-71
2023/10/19 10:27:10;;;;;;;;;;;;;;;13.64;48.02;98915.97;4960365;28;98093;-71
2023/10/19 10:29:36;;;;;;;;;;;;;;;13.63;48.37;98919.78;4947438;28;98091;-71
2023/10/19 10:32:05;;;;;;;;;;;;;;;13.61;48.15;98922.03;4944822;28;98318;-65
2023/10/19 10:34:37;;;;;;;;;;;;;;;13.59;48.20;98916.13;4950518;28;98193;-71
2023/10/19 10:37:07;;;;;;;;;;;;;;;13.57;48.40;98906.75;4957208;28;98171;-64
2023/10/19 10:39:38;;;;;;;;;;;;;;;13.55;48.27;98912.50;4928297;28;98511;-65
2023/10/19 10:42:09;;;;;;;;;;;;;;;13.54;48.47;98910.13;4946255;28;99180;-64
2023/10/19 10:44:39;;;;;;;;;;;;;;;13.55;48.53;98903.56;4974435;28;98381;-64
2023/10/19 10:47:13;;;;;;;;;;;;;;;13.61;48.18;98894.16;4959029;28;98410;-71
2023/10/19 10:49:51;;;;;;;;;;;;;;;13.67;48.27;98898.28;4963552;28;97973;-64
2023/10/19 10:52:34;;;;;;;;;;;;;;;13.64;48.41;98909.78;4962642;28;100338;-64
2023/10/19 10:55:11;;;;;;;;;;;;;;;13.63;48.43;98900.03;4948391;28;98857;-64
2023/10/19 10:57:38;;;;;;;;;;;;;;;13.65;47.98;98893.19;4945791;28;98503;-71
2023/10/19 11:00:07;;;;;;;;;;;;;;;13.68;48.18;98881.72;4926573;28;100048;-64
2023/10/19 11:02:36;;;;;;;;;;;;;;;13.73;47.96;98886.16;4951669;28;98391;-71
2023/10/19 11:05:02;;;;;;;;;;;;;;;13.79;48.35;98884.81;4971314;28;98275;-64
2023/10/19 11:07:30;;;;;;;;;;;;;;;13.82;47.91;98881.47;4960023;28;98692;-64
2023/10/19 11:09:56;;;;;;;;;;;;;;;13.91;47.86;98873.28;4929606;28;98435;-64
2023/10/19 11:12:24;;;;;;;;;;;;;;;14.02;47.84;98873.72;4961483;28;101047;-71
2023/10/19 11:14:54;;;;;;;;;;;;;;;14.09;48.06;98872.06;4947192;28;98614;-71
2023/10/19 11:17:31;;;;;;;;;;;;;;;14.10;47.87;98879.06;4979257;27;99111;-64
2023/10/19 11:20:01;;;;;;;;;;;;;;;14.13;47.89;98886.56;4955834;28;98598;-64
2023/10/19 11:22:28;;;;;;;;;;;;;;;14.16;47.99;98885.13;4951822;28;100263;-64
2023/10/19 11:24:56;;;;;;;;;;;;;;;14.19;47.89;98877.13;4927865;28;97887;-71
2023/10/19 11:27:26;;;;;;;;;;;;;;;14.25;47.73;98872.28;4962330;28;98147;-64
2023/10/19 11:29:56;;;;;;;;;;;;;;;14.30;47.85;98860.47;4962462;28;99307;-64
2023/10/19 11:32:25;;;;;;;;;;;;;;;14.32;48.14;98859.00;4944318;28;98511;-71
2023/10/19 11:34:55;;;;;;;;;;;;;;;14.38;47.96;98857.69;4930944;28;97921;-71
2023/10/19 11:37:21;;;;;;;;;;;;;;;14.48;47.86;98859.22;4960461;28;98366;-71
2023/10/19 11:39:49;;;;;;;;;;;;;;;14.46;47.97;98861.44;4974462;28;98319;-64
2023/10/19 11:42:18;;;;;;;;;;;;;;;14.39;47.95;98853.84;4959043;28;98419;-71
2023/10/19 11:44:45;;;;;;;;;;;;;;;14.34;47.91;98853.25;4947203;28;98693;-71
2023/10/19 11:47:13;;;;;;;;;;;;;;;14.31;48.30;98845.81;4948617;28;98335;-71
2023/10/19 11:49:40;;;;;;;;;;;;;;;14.34;48.35;98845.13;4965132;28;97884;-71
2023/10/19 11:52:09;;;;;;;;;;;;;;;14.37;48.31;98839.84;4944490;28;97914;-71
2023/10/19 11:54:36;;;;;;;;;;;;;;;14.44;48.02;98842.81;4975392;28;98545;-71
2023/10/19 11:57:02;;;;;;;;;;;;;;;14.53;48.07;98837.34;4959908;28;98456;-69
2023/10/19 11:59:31;;;;;;;;;;;;;;;14.60;47.65;98847.66;4947615;28;99134;-64
2023/10/19 12:02:00;;;;;;;;;;;;;;;14.66;47.85;98851.75;4951160;28;98788;-65
2023/10/19 12:04:28;;;;;;;;;;;;;;;14.73;47.85;98858.19;4943828;28;97964;-64
2023/10/19 12:06:55;;;;;;;;;;;;;;;14.76;47.75;98845.13;4944232;28;98195;-65
2023/10/19 12:09:24;;;;;;;;;;;;;;;14.80;47.88;98841.41;4927237;28;98370;-71
2023/10/19 12:11:53;;;;;;;;;;;;;;;14.78;47.95;98843.66;4977166;27;98336;-71
2023/10/19 12:14:21;;;;;;;;;;;;;;;14.75;48.09;98838.13;4957727;28;97885;-71
2023/10/19 12:16:48;;;;;;;;;;;;;;;14.71;48.17;98836.06;4961670;28;98689;-71
2023/10/19 12:19:15;;;;;;;;;;;;;;;14.68;48.21;98847.56;4960561;28;98153;-71
2023/10/19 12:21:41;;;;;;;;;;;;;;;14.68;48.04;98849.50;4945496;28;98157;-71
2023/10/19 12:24:08;;;;;;;;;;;;;;;14.69;47.91;98837.50;4955842;27;98071;-71
2023/10/19 12:26:35;;;;;;;;;;;;;;;14.71;47.99;98833.34;4964866;28;97913;-64
2023/10/19 12:29:06;;;;;;;;;;;;;;;14.73;48.26;98831.09;4933080;28;98311;-71
2023/10/19 12:31:33;;;;;;;;;;;;;;;14.73;48.33;98836.50;4960855;28;100130;-71
2023/10/19 12:33:59;;;;;;;;;;;;;;;14.71;48.40;98829.84;4948888;28;98832;-65
2023/10/19 12:38:54;;;;;;;;;;;;;;;14.69;48.36;98832.09;4959431;28;99866;-71
2023/10/19 12:41:21;;;;;;;;;;;;;;;14.70;47.96;98825.56;4941966;28;99047;-65
2023/10/19 12:43:52;;;;;;;;;;;;;;;14.70;48.02;98828.28;4945416;28;98280;-71
2023/10/19 12:46:24;;;;;;;;;;;;;;;14.71;48.24;98829.84;4947126;28;98121;-71
2023/10/19 12:48:55;;;;;;;;;;;;;;;14.70;48.10;98823.63;4960897;28;98746;-71
2023/10/19 12:51:25;;;;;;;;;;;;;;;14.68;48.06;98827.81;4928106;28;98271;-65
2023/10/19 12:53:52;;;;;;;;;;;;;;;14.63;48.07;98826.09;4955647;28;97919;-65
2023/10/19 12:56:28;;;;;;;;;;;;;;;14.62;48.21;98821.00;4932510;28;98487;-71
2023/10/19 12:58:55;;;;;;;;;;;;;;;14.68;48.37;98817.75;4961816;27;100226;-71
2023/10/19 13:01:21;;;;;;;;;;;;;;;14.75;48.38;98811.78;4946962;28;98579;-71
2023/10/19 13:03:49;;;;;;;;;;;;;;;14.78;47.95;98810.34;4962990;28;97952;-71
2023/10/19 13:06:16;;;;;;;;;;;;;;;14.76;48.15;98813.38;4942721;28;97974;-71
2023/10/19 13:08:43;;;;;;;;;;;;;;;14.74;48.38;98810.22;4948180;28;97981;-65
2023/10/19 13:11:14;;;;;;;;;;;;;;;14.72;48.24;98810.53;4929357;28;98434;-65
2023/10/19 13:13:40;;;;;;;;;;;;;;;14.69;48.55;98805.75;4951715;28;97939;-72
2023/10/19 13:16:08;;;;;;;;;;;;;;;14.66;48.34;98809.16;4958776;28;99256;-72
2023/10/19 13:18:35;;;;;;;;;;;;;;;14.62;48.41;98807.44;4963360;28;97904;-71
2023/10/19 13:21:05;;;;;;;;;;;;;;;14.61;48.29;98803.94;4950658;28;98344;-65
2023/10/19 13:23:38;;;;;;;;;;;;;;;14.62;48.47;98797.41;4949133;28;99084;-72
2023/10/19 13:26:16;;;;;;;;;;;;;;;14.64;48.27;98791.63;4964375;27;98649;-72